TAF Text Data
IDs:
Format:
Raw Decoded Include METAR

Data at: 1229 UTC 17 Sep 2019

KSLN 171153Z 17009KT 10SM CLR 23/18 A2999 RMK AO2 SLP140 T02280183 10256 20222 53004

KSLN 171120Z 1712/1812 18010KT P6SM SCT250 WS020/20025KT
  FM171500 19015G30KT P6SM SCT250
  FM180400 19015KT P6SM FEW080 SCT250 WS020/19035KT
  FM180900 18010KT P6SM SCT080 BKN250


KATW 171145Z 00000KT 10SM SCT120 17/16 A3017

KATW 171127Z 1712/1812 00000KT P6SM BKN150
  TEMPO 1712/1713 4SM BR
  FM171400 18007KT P6SM BKN200
  FM171600 16010G16KT P6SM SCT200
  FM180100 15006KT P6SM SCT250
  FM180900 17006KT 6SM BR SCT200